Time;durP1;ratioP1;P1;durP2;ratioP2;P2;SDS_P1;SDS_P2;PMS_P1;PMS_P2;Temp;Humidity;BMP_temperature;BMP_pressure;BME280_temperature;BME280_humidity;BME280_pressure;Samples;Min_cycle;Max_cycle;Signal;HPM_P1;HPM_P2
2023/12/05 00:05:42;;;;;;;12.98;8.30;;;0.60;73.50;;;;;;5109791;27;21167;-71
2023/12/05 00:08:08;;;;;;;16.45;7.65;;;0.50;72.00;;;;;;5110197;28;20056;-70
2023/12/05 00:10:34;;;;;;;11.80;8.18;;;0.50;72.60;;;;;;5086969;28;20077;-71
2023/12/05 00:13:00;;;;;;;20.38;11.18;;;0.30;72.80;;;;;;5088199;28;20105;-74
2023/12/05 00:15:27;;;;;;;17.10;9.90;;;0.30;72.90;;;;;;5089580;28;20451;-71
2023/12/05 00:17:53;;;;;;;14.45;10.27;;;0.30;72.80;;;;;;5088001;28;20040;-70
2023/12/05 00:20:19;;;;;;;10.05;7.10;;;0.30;72.80;;;;;;5088973;28;20039;-74
2023/12/05 00:22:45;;;;;;;20.42;9.73;;;0.20;72.80;;;;;;5087999;28;20031;-71
2023/12/05 00:25:12;;;;;;;19.70;8.43;;;0.20;72.80;;;;;;5087932;28;20028;-74
2023/12/05 00:27:38;;;;;;;17.15;8.93;;;0.20;72.90;;;;;;5089360;28;20032;-74
2023/12/05 00:30:05;;;;;;;18.92;11.75;;;0.20;72.90;;;;;;5087615;28;20078;-71
2023/12/05 00:32:31;;;;;;;21.42;12.20;;;0.10;72.90;;;;;;5087857;28;20028;-74
2023/12/05 00:34:58;;;;;;;19.00;9.63;;;0.10;73.00;;;;;;5088012;28;20094;-70
2023/12/05 00:37:24;;;;;;;29.65;9.65;;;0.10;73.00;;;;;;5089251;28;20040;-71
2023/12/05 00:39:50;;;;;;;10.75;7.38;;;0.10;73.10;;;;;;5089319;28;20066;-70
2023/12/05 00:42:16;;;;;;;17.20;9.90;;;0.10;73.10;;;;;;5088748;28;20066;-74
2023/12/05 00:44:42;;;;;;;15.05;6.63;;;0.20;73.10;;;;;;5070814;28;20392;-71
2023/12/05 00:47:08;;;;;;;16.67;8.30;;;0.20;73.20;;;;;;5089194;28;20040;-71
2023/12/05 00:49:34;;;;;;;10.45;8.52;;;0.20;73.00;;;;;;5088710;28;20041;-71
2023/12/05 00:52:00;;;;;;;17.77;9.23;;;0.20;73.00;;;;;;5088601;28;20036;-70
2023/12/05 00:54:26;;;;;;;19.58;10.90;;;0.20;73.00;;;;;;5087140;28;20080;-70
2023/12/05 00:56:54;;;;;;;18.40;11.18;;;0.20;73.00;;;;;;5087462;28;20086;-70
2023/12/05 00:59:20;;;;;;;15.30;9.63;;;0.20;73.10;;;;;;5087436;28;20040;-70
2023/12/05 01:01:47;;;;;;;16.63;9.52;;;0.20;73.10;;;;;;5088211;28;20063;-74
2023/12/05 01:04:13;;;;;;;18.73;8.57;;;0.20;73.00;;;;;;5088277;28;20056;-75
2023/12/05 01:06:39;;;;;;;11.23;5.82;;;0.20;72.90;;;;;;5074898;28;20469;-74
2023/12/05 01:09:10;;;;;;;9.00;6.07;;;0.20;73.00;;;;;;5075138;28;20041;-70
2023/12/05 01:11:36;;;;;;;9.57;7.30;;;0.20;72.90;;;;;;5073362;28;20035;-70
2023/12/05 01:14:03;;;;;;;13.85;7.45;;;0.20;72.90;;;;;;5073530;28;20050;-72
2023/12/05 01:16:29;;;;;;;15.70;8.20;;;0.20;73.00;;;;;;5056951;28;20525;-74
2023/12/05 01:18:55;;;;;;;63.17;23.45;;;0.20;73.00;;;;;;5075137;28;20540;-74
2023/12/05 01:21:21;;;;;;;28.13;16.80;;;0.20;72.90;;;;;;5056362;28;20041;-70
2023/12/05 01:23:47;;;;;;;35.50;17.02;;;0.10;73.00;;;;;;5073262;28;20490;-74
2023/12/05 01:26:13;;;;;;;25.33;16.10;;;0.10;73.10;;;;;;5073511;28;20043;-70
2023/12/05 01:28:39;;;;;;;19.70;10.70;;;0.10;73.20;;;;;;5073438;28;20473;-70
2023/12/05 01:31:06;;;;;;;27.10;9.98;;;0.00;73.10;;;;;;5052952;28;20044;-74
2023/12/05 01:33:32;;;;;;;18.63;10.75;;;0.00;72.80;;;;;;5052809;28;20048;-70
2023/12/05 01:35:58;;;;;;;22.15;6.63;;;-0.10;73.60;;;;;;5036686;28;20039;-71
2023/12/05 01:38:24;;;;;;;16.48;9.38;;;-0.10;73.80;;;;;;5053208;28;20037;-70
2023/12/05 01:40:50;;;;;;;16.70;8.55;;;-0.10;73.90;;;;;;5036115;28;20452;-71
2023/12/05 01:43:16;;;;;;;15.77;6.22;;;-0.10;73.70;;;;;;5054007;28;20048;-74
2023/12/05 01:45:42;;;;;;;17.33;7.28;;;0.00;73.50;;;;;;5053140;28;20108;-71
2023/12/05 01:48:10;;;;;;;12.00;8.02;;;-0.10;73.50;;;;;;5054293;28;20044;-71
2023/12/05 01:50:36;;;;;;;13.68;8.35;;;0.00;73.30;;;;;;5040404;28;20118;-74
2023/12/05 01:53:04;;;;;;;;;;;0.00;73.30;;;;;;5073204;28;20149;-70
2023/12/05 01:55:31;;;;;;;15.43;6.80;;;0.10;73.20;;;;;;5072757;28;19920;-75
2023/12/05 01:57:58;;;;;;;9.95;5.38;;;0.10;73.00;;;;;;5073125;28;20028;-74
2023/12/05 02:00:25;;;;;;;11.88;9.23;;;0.00;72.90;;;;;;5073291;28;20048;-70
2023/12/05 02:02:52;;;;;;;20.20;8.45;;;0.10;73.10;;;;;;5072848;28;20032;-75
2023/12/05 02:05:18;;;;;;;20.58;8.82;;;0.10;73.00;;;;;;5073770;28;20121;-75
2023/12/05 02:07:44;;;;;;;20.92;12.00;;;0.10;73.00;;;;;;5074041;28;20036;-75
2023/12/05 02:10:10;;;;;;;;;;;0.10;73.20;;;;;;5073735;28;20037;-71
2023/12/05 02:12:55;;;;;;;10.68;5.40;;;0.10;73.10;;;;;;5072678;28;19912;-72
2023/12/05 02:15:21;;;;;;;16.67;5.90;;;0.20;73.00;;;;;;5073498;28;20032;-73
2023/12/05 02:18:25;;;;;;;;;;;0.20;72.90;;;;;;5055494;28;20031;-70
2023/12/05 02:21:15;;;;;;;13.45;7.45;;;0.20;72.90;;;;;;5073128;28;19995;-71
2023/12/05 02:24:18;;;;;;;15.00;9.68;;;0.20;72.80;;;;;;5072054;28;20503;-70
2023/12/05 02:27:06;;;;;;;10.35;6.13;;;0.20;72.90;;;;;;5073631;28;20029;-70
2023/12/05 02:29:32;;;;;;;32.70;10.88;;;0.20;72.90;;;;;;5072503;28;20079;-72
2023/12/05 02:32:00;;;;;;;8.50;7.38;;;0.20;73.00;;;;;;5071725;28;20033;-75
2023/12/05 02:34:26;;;;;;;19.73;9.27;;;0.20;72.90;;;;;;5072128;28;20040;-74
2023/12/05 02:37:03;;;;;;;17.30;9.23;;;0.20;73.10;;;;;;5072084;28;20055;-70
2023/12/05 02:39:45;;;;;;;16.30;9.85;;;0.20;73.50;;;;;;5055578;28;20075;-74
2023/12/05 02:42:14;;;;;;;17.88;11.20;;;0.20;73.50;;;;;;5054561;28;20032;-70
2023/12/05 02:44:45;;;;;;;18.50;10.23;;;0.20;73.40;;;;;;5071930;28;20032;-70
2023/12/05 02:47:14;;;;;;;11.93;7.38;;;0.20;73.30;;;;;;5072035;28;20100;-75
2023/12/05 02:49:41;;;;;;;15.10;8.02;;;0.20;73.40;;;;;;5071968;28;20040;-70
2023/12/05 02:52:07;;;;;;;15.43;5.90;;;0.20;73.40;;;;;;5071179;28;20505;-71
2023/12/05 02:54:33;;;;;;;15.32;8.60;;;0.30;73.60;;;;;;5071839;28;20090;-72
2023/12/05 02:56:59;;;;;;;11.23;7.38;;;0.30;73.70;;;;;;5073189;28;20086;-70
2023/12/05 02:59:25;;;;;;;;;;;0.20;73.20;;;;;;5072270;28;20101;-70
2023/12/05 03:01:51;;;;;;;20.83;10.20;;;0.20;73.90;;;;;;5054479;28;19999;-70
2023/12/05 03:04:17;;;;;;;18.20;6.35;;;0.10;73.90;;;;;;5072341;28;20048;-70
2023/12/05 03:06:44;;;;;;;13.85;8.18;;;0.10;74.10;;;;;;5071784;28;20558;-74
2023/12/05 03:09:10;;;;;;;11.00;6.70;;;0.10;73.90;;;;;;5071448;28;20047;-71
2023/12/05 03:11:36;;;;;;;;;;;0.10;74.20;;;;;;5072984;28;20502;-74
2023/12/05 03:14:03;;;;;;;19.15;7.05;;;0.20;74.30;;;;;;5072626;28;19924;-70
2023/12/05 03:16:30;;;;;;;21.48;11.55;;;0.20;74.10;;;;;;5071630;28;20041;-70
2023/12/05 03:18:56;;;;;;;19.65;8.60;;;0.20;74.00;;;;;;5071234;28;20040;-70
2023/12/05 03:21:22;;;;;;;15.05;7.18;;;0.20;73.90;;;;;;5072081;28;20389;-70
2023/12/05 03:23:48;;;;;;;12.95;9.13;;;0.30;74.00;;;;;;5071317;28;20359;-71
2023/12/05 03:26:32;;;;;;;20.58;8.70;;;0.30;73.90;;;;;;5054450;28;20032;-71
2023/12/05 03:28:58;;;;;;;14.50;7.90;;;0.20;74.00;;;;;;5072528;28;20429;-74
2023/12/05 03:31:24;;;;;;;11.88;9.38;;;0.20;74.20;;;;;;5070642;28;20032;-74
2023/12/05 03:33:50;;;;;;;12.43;8.10;;;0.20;74.30;;;;;;5054232;28;20044;-70
2023/12/05 03:36:16;;;;;;;12.13;6.70;;;0.20;74.30;;;;;;5072415;28;20059;-71
2023/12/05 03:38:42;;;;;;;10.25;7.72;;;0.20;74.60;;;;;;5071337;28;20073;-70
2023/12/05 03:41:09;;;;;;;24.27;10.38;;;0.20;74.60;;;;;;5071805;28;20160;-70
2023/12/05 03:43:35;;;;;;;26.00;10.52;;;0.20;74.60;;;;;;5072148;28;20032;-71
2023/12/05 03:46:01;;;;;;;;;;;0.20;74.50;;;;;;5072892;28;20032;-70
2023/12/05 03:48:27;;;;;;;10.77;7.53;;;0.10;74.70;;;;;;5071161;28;20368;-71
2023/12/05 03:50:53;;;;;;;16.48;9.27;;;0.00;74.80;;;;;;5071844;28;20028;-72
2023/12/05 03:53:20;;;;;;;13.70;8.65;;;0.00;75.20;;;;;;5072000;28;20044;-71
2023/12/05 03:55:46;;;;;;;12.73;8.18;;;-0.10;75.30;;;;;;5072137;28;20414;-70
2023/12/05 03:58:12;;;;;;;16.85;8.98;;;0.00;75.30;;;;;;5070942;28;20473;-75
2023/12/05 04:00:38;;;;;;;15.82;8.50;;;0.00;75.30;;;;;;5071586;28;20039;-75
2023/12/05 04:03:04;;;;;;;9.18;5.68;;;0.00;75.40;;;;;;5072236;28;20033;-74
2023/12/05 04:05:30;;;;;;;9.40;7.50;;;0.00;75.40;;;;;;5070898;28;20056;-75
2023/12/05 04:07:56;;;;;;;9.48;5.28;;;0.00;75.30;;;;;;5072321;28;20028;-75
2023/12/05 04:10:22;;;;;;;;;;;0.00;75.20;;;;;;5070389;28;20052;-74
2023/12/05 04:12:48;;;;;;;6.43;4.60;;;0.10;75.10;;;;;;5070797;28;20293;-71
2023/12/05 04:15:14;;;;;;;16.63;9.68;;;0.10;74.90;;;;;;5070495;28;20511;-74
2023/12/05 04:17:40;;;;;;;11.93;6.65;;;0.10;75.10;;;;;;5071070;28;20029;-74
2023/12/05 04:20:07;;;;;;;11.43;7.32;;;0.10;75.30;;;;;;5070341;28;20041;-70
2023/12/05 04:22:33;;;;;;;10.90;6.68;;;0.10;74.50;;;;;;5071936;28;20481;-74
2023/12/05 04:24:59;;;;;;;17.83;7.35;;;0.20;75.00;;;;;;5072121;28;20053;-74
2023/12/05 04:27:25;;;;;;;17.98;9.23;;;0.10;75.10;;;;;;5070852;28;20444;-70
2023/12/05 04:29:51;;;;;;;18.55;6.32;;;0.10;75.10;;;;;;5072306;28;20083;-70
2023/12/05 04:32:17;;;;;;;20.95;12.10;;;0.20;75.10;;;;;;5071279;28;20044;-70
2023/12/05 04:34:44;;;;;;;15.50;8.45;;;0.20;75.10;;;;;;5070597;28;20037;-74
2023/12/05 04:37:11;;;;;;;16.02;8.13;;;0.20;74.90;;;;;;5071825;28;20028;-74
2023/12/05 04:39:37;;;;;;;18.75;7.55;;;0.20;74.90;;;;;;5053789;28;20037;-74
2023/12/05 04:42:04;;;;;;;15.15;7.00;;;0.10;75.00;;;;;;5074908;28;20061;-72
2023/12/05 04:44:31;;;;;;;13.60;6.97;;;0.10;74.90;;;;;;5075464;28;20115;-75
2023/12/05 04:46:57;;;;;;;12.18;7.75;;;0.10;74.50;;;;;;5075396;28;20524;-75
2023/12/05 04:49:24;;;;;;;19.55;7.18;;;0.10;75.40;;;;;;5075622;28;20561;-70
2023/12/05 04:51:50;;;;;;;13.65;6.18;;;0.00;75.40;;;;;;5056740;28;20041;-74
2023/12/05 04:54:16;;;;;;;10.82;6.82;;;-0.10;75.70;;;;;;5075315;28;20389;-70
2023/12/05 04:56:42;;;;;;;9.43;7.05;;;-0.10;75.90;;;;;;5074231;28;20033;-72
2023/12/05 04:59:08;;;;;;;7.88;6.75;;;-0.10;75.90;;;;;;5073900;28;20048;-74
2023/12/05 05:01:35;;;;;;;14.60;9.60;;;-0.10;76.20;;;;;;5074873;28;20513;-74
2023/12/05 05:04:01;;;;;;;19.13;7.93;;;0.00;76.00;;;;;;5073554;28;20120;-71
2023/12/05 05:06:27;;;;;;;16.05;9.05;;;0.00;75.80;;;;;;5073994;28;20486;-70
2023/12/05 05:08:53;;;;;;;19.20;10.93;;;0.00;75.70;;;;;;5073942;28;20070;-70
2023/12/05 05:11:19;;;;;;;12.68;7.55;;;-0.10;75.70;;;;;;5056537;28;20094;-74
2023/12/05 05:13:45;;;;;;;11.07;7.15;;;-0.10;75.90;;;;;;5073390;28;20043;-75
2023/12/05 05:16:11;;;;;;;13.15;8.27;;;-0.10;76.00;;;;;;5073625;28;20028;-75
2023/12/05 05:18:37;;;;;;;11.98;5.18;;;-0.10;76.00;;;;;;5075109;28;20477;-71
2023/12/05 05:21:05;;;;;;;12.77;9.05;;;-0.20;76.00;;;;;;5074455;28;20045;-70
2023/12/05 05:23:32;;;;;;;11.85;7.72;;;-0.10;76.00;;;;;;5073368;28;20089;-71
2023/12/05 05:25:59;;;;;;;11.45;6.75;;;-0.10;75.90;;;;;;5073322;28;20059;-70
2023/12/05 05:28:25;;;;;;;12.25;8.18;;;-0.10;75.40;;;;;;5073549;28;20041;-70
2023/12/05 05:30:54;;;;;;;14.50;8.05;;;-0.10;75.90;;;;;;5072899;28;20481;-70
2023/12/05 05:33:39;;;;;;;12.55;8.20;;;0.00;75.90;;;;;;5073272;28;20064;-71
2023/12/05 05:36:06;;;;;;;12.02;7.25;;;0.00;75.90;;;;;;5074392;28;20035;-75
2023/12/05 05:38:32;;;;;;;14.68;7.95;;;0.00;75.50;;;;;;5074234;28;20029;-70
2023/12/05 05:41:09;;;;;;;15.82;7.70;;;0.00;75.40;;;;;;5074041;28;20037;-70
2023/12/05 05:43:35;;;;;;;20.85;6.65;;;0.10;75.30;;;;;;5072873;28;20033;-74
2023/12/05 05:46:01;;;;;;;12.93;7.75;;;0.10;75.20;;;;;;5074479;28;20047;-71
2023/12/05 05:48:27;;;;;;;;;;;0.10;74.70;;;;;;5072459;28;20028;-75
2023/12/05 05:50:53;;;;;;;14.60;5.40;;;0.10;75.40;;;;;;5072152;28;19920;-75
2023/12/05 05:53:19;;;;;;;17.40;9.75;;;0.00;75.10;;;;;;5073669;28;20074;-71
2023/12/05 05:55:45;;;;;;;9.70;5.63;;;0.10;75.30;;;;;;5074066;28;20056;-75
2023/12/05 05:58:11;;;;;;;18.58;4.75;;;0.10;75.10;;;;;;5074287;28;20052;-70
2023/12/05 06:00:38;;;;;;;11.65;6.50;;;0.10;74.50;;;;;;5072244;28;20032;-70
2023/12/05 06:03:05;;;;;;;14.38;5.70;;;0.10;75.00;;;;;;5074000;28;20437;-70
2023/12/05 06:05:31;;;;;;;11.00;5.97;;;0.10;74.80;;;;;;5073870;28;20056;-73
2023/12/05 06:07:57;;;;;;;10.07;5.15;;;0.10;74.90;;;;;;5074092;28;20106;-73
2023/12/05 06:10:23;;;;;;;;;;;0.20;74.60;;;;;;5073878;28;20147;-71
2023/12/05 06:12:49;;;;;;;15.02;5.20;;;0.20;74.50;;;;;;5055687;28;20007;-75
2023/12/05 06:15:15;;;;;;;13.88;8.32;;;0.20;74.50;;;;;;5072496;28;20324;-70
2023/12/05 06:17:41;;;;;;;13.15;8.98;;;0.20;74.30;;;;;;5072666;28;20043;-75
2023/12/05 06:20:08;;;;;;;18.77;7.93;;;0.20;74.30;;;;;;5073131;28;20482;-75
2023/12/05 06:22:34;;;;;;;10.18;7.97;;;0.30;74.30;;;;;;5072326;28;20029;-75
2023/12/05 06:25:00;;;;;;;11.30;6.50;;;0.30;74.10;;;;;;5074006;28;20041;-70
2023/12/05 06:27:26;;;;;;;11.27;6.82;;;0.30;74.00;;;;;;5072475;28;20071;-70
2023/12/05 06:29:53;;;;;;;12.50;6.63;;;0.30;73.90;;;;;;5073733;28;20052;-72
2023/12/05 06:32:19;;;;;;;11.43;5.95;;;0.30;73.90;;;;;;5073224;28;20563;-74
2023/12/05 06:34:45;;;;;;;17.95;7.53;;;0.40;73.80;;;;;;5073709;28;20086;-75
2023/12/05 06:37:11;;;;;;;14.52;7.75;;;0.40;73.70;;;;;;5073409;28;20032;-71
2023/12/05 06:39:37;;;;;;;9.07;4.90;;;0.40;73.80;;;;;;5073512;28;20045;-75
2023/12/05 06:42:04;;;;;;;12.95;6.63;;;0.40;73.70;;;;;;5054728;28;20036;-71
2023/12/05 06:44:30;;;;;;;8.68;5.50;;;0.40;73.00;;;;;;5071735;28;20121;-70
2023/12/05 06:46:56;;;;;;;12.00;6.20;;;0.50;73.70;;;;;;5073414;28;20028;-74
2023/12/05 06:49:22;;;;;;;10.05;5.78;;;0.50;73.60;;;;;;5055168;28;20059;-71
2023/12/05 06:51:55;;;;;;;7.65;5.38;;;0.60;73.50;;;;;;5072564;28;20036;-72
2023/12/05 06:54:22;;;;;;;7.00;5.05;;;0.60;73.30;;;;;;5071596;28;20044;-70
2023/12/05 06:56:48;;;;;;;9.00;5.03;;;0.60;73.40;;;;;;5073129;28;20055;-70
2023/12/05 06:59:15;;;;;;;5.47;3.35;;;0.60;73.20;;;;;;5072860;28;20044;-71
2023/12/05 07:01:41;;;;;;;13.60;7.00;;;0.70;73.20;;;;;;5072361;28;20064;-71
2023/12/05 07:04:07;;;;;;;14.75;7.60;;;0.80;73.00;;;;;;5072312;28;20558;-71
2023/12/05 07:06:34;;;;;;;15.57;6.75;;;0.80;72.30;;;;;;5071969;28;20039;-71
2023/12/05 07:09:00;;;;;;;;;;;0.80;73.00;;;;;;5073168;28;20413;-71
2023/12/05 07:11:26;;;;;;;12.88;4.50;;;0.90;73.00;;;;;;5072482;28;19956;-75
2023/12/05 07:13:54;;;;;;;13.48;4.97;;;0.90;72.20;;;;;;5071218;28;20048;-73
2023/12/05 07:16:20;;;;;;;13.77;8.98;;;0.90;72.60;;;;;;5071505;28;20033;-70
2023/12/05 07:18:46;;;;;;;;;;;0.90;73.60;;;;;;5071954;28;20041;-70
2023/12/05 07:21:12;;;;;;;13.10;6.68;;;0.90;72.90;;;;;;5070830;28;19923;-71
2023/12/05 07:23:38;;;;;;;15.48;8.40;;;0.90;72.80;;;;;;5071128;28;20044;-71
2023/12/05 07:26:04;;;;;;;11.23;7.32;;;0.90;72.80;;;;;;5072558;28;20036;-75
2023/12/05 07:28:30;;;;;;;;;;;1.00;72.70;;;;;;5073193;28;20600;-71
2023/12/05 07:30:57;;;;;;;8.82;4.95;;;1.00;72.70;;;;;;5050579;28;19917;-71
2023/12/05 07:33:24;;;;;;;18.05;9.18;;;1.00;72.60;;;;;;5034395;28;20091;-74
2023/12/05 07:35:50;;;;;;;10.38;6.70;;;1.10;72.70;;;;;;5051059;28;20044;-74
2023/12/05 07:38:16;;;;;;;9.10;4.57;;;1.10;72.70;;;;;;5051111;28;20059;-74
2023/12/05 07:40:42;;;;;;;15.18;9.57;;;1.10;72.60;;;;;;5057299;28;20028;-71
2023/12/05 07:43:08;;;;;;;16.85;8.57;;;1.20;72.60;;;;;;5071225;28;20033;-70
2023/12/05 07:45:34;;;;;;;10.13;7.22;;;1.20;72.60;;;;;;5072159;28;20108;-73
2023/12/05 07:48:00;;;;;;;27.25;6.47;;;1.20;72.50;;;;;;5071421;28;20477;-70
2023/12/05 07:50:26;;;;;;;13.77;9.25;;;1.20;72.50;;;;;;5070587;28;20086;-70
2023/12/05 07:52:52;;;;;;;11.40;6.88;;;1.20;72.50;;;;;;5072066;28;20114;-73
2023/12/05 07:55:19;;;;;;;14.80;7.63;;;1.20;72.60;;;;;;5070584;28;20040;-74
2023/12/05 07:57:46;;;;;;;11.45;7.30;;;1.30;72.10;;;;;;5070923;28;20504;-70
2023/12/05 08:00:18;;;;;;;14.80;8.43;;;1.30;72.40;;;;;;5070436;28;20128;-74
2023/12/05 08:02:44;;;;;;;13.90;7.05;;;1.30;71.90;;;;;;5070853;28;20032;-74
2023/12/05 08:05:11;;;;;;;15.57;9.73;;;1.40;72.40;;;;;;5070644;28;20080;-70
2023/12/05 08:07:38;;;;;;;10.00;5.82;;;1.40;72.20;;;;;;5054415;28;20032;-70
2023/12/05 08:10:23;;;;;;;14.10;8.52;;;1.50;72.20;;;;;;5071937;28;20037;-74
2023/12/05 08:12:49;;;;;;;14.23;7.95;;;1.50;72.00;;;;;;5070690;28;20089;-70
2023/12/05 08:15:15;;;;;;;18.73;8.98;;;1.50;72.10;;;;;;5071443;28;20052;-72
2023/12/05 08:17:41;;;;;;;14.90;10.93;;;1.50;72.10;;;;;;5074870;28;20037;-73
2023/12/05 08:20:08;;;;;;;27.55;10.23;;;1.50;72.10;;;;;;5074455;28;20402;-70
2023/12/05 08:22:34;;;;;;;17.48;7.45;;;1.50;71.90;;;;;;5074656;28;20402;-73
2023/12/05 08:25:00;;;;;;;10.35;7.18;;;1.50;72.00;;;;;;5076155;28;20091;-71
2023/12/05 08:27:26;;;;;;;11.52;5.43;;;1.60;71.90;;;;;;5075953;28;20420;-74
2023/12/05 08:29:52;;;;;;;7.53;4.65;;;1.60;71.90;;;;;;5076290;28;20064;-74
2023/12/05 08:32:18;;;;;;;14.45;7.72;;;1.70;71.80;;;;;;5075379;28;20040;-70
2023/12/05 08:34:44;;;;;;;11.18;7.25;;;1.70;71.50;;;;;;5075802;28;20036;-70
2023/12/05 08:37:10;;;;;;;14.32;6.00;;;1.80;71.30;;;;;;5074446;28;20044;-70
2023/12/05 08:39:36;;;;;;;12.77;6.50;;;1.80;71.20;;;;;;5074464;28;20041;-70
2023/12/05 08:42:03;;;;;;;14.40;6.65;;;1.90;71.20;;;;;;5075405;28;20406;-74
2023/12/05 08:44:29;;;;;;;;;;;1.90;70.50;;;;;;5074621;28;20120;-74
2023/12/05 08:46:55;;;;;;;13.02;7.22;;;2.00;70.90;;;;;;5075546;28;19912;-74
2023/12/05 08:49:21;;;;;;;18.10;6.88;;;2.00;70.60;;;;;;5075707;28;20048;-73
2023/12/05 08:51:47;;;;;;;7.28;6.03;;;2.10;70.70;;;;;;5075164;28;20044;-73
2023/12/05 08:54:13;;;;;;;15.65;6.45;;;2.10;70.60;;;;;;5057102;28;20094;-71
2023/12/05 08:56:39;;;;;;;9.93;6.88;;;2.20;70.40;;;;;;5075389;28;20040;-74
2023/12/05 08:59:05;;;;;;;15.13;7.10;;;2.20;70.40;;;;;;5074092;28;20090;-70
2023/12/05 09:01:31;;;;;;;15.50;7.75;;;2.20;70.60;;;;;;5075133;28;20051;-71
2023/12/05 09:03:58;;;;;;;17.00;8.13;;;2.20;70.50;;;;;;5073665;28;20045;-74
2023/12/05 09:06:24;;;;;;;9.90;6.63;;;2.20;70.20;;;;;;5075650;28;20409;-71
2023/12/05 09:08:50;;;;;;;16.58;7.95;;;2.20;70.10;;;;;;5073793;28;20052;-71
2023/12/05 09:11:16;;;;;;;11.88;7.07;;;2.20;70.10;;;;;;5056516;28;20040;-73
2023/12/05 09:13:42;;;;;;;11.52;6.95;;;2.30;70.00;;;;;;5074597;28;20116;-73
2023/12/05 09:16:08;;;;;;;8.20;4.93;;;2.30;69.80;;;;;;5073852;28;20032;-73
2023/12/05 09:18:34;;;;;;;11.10;4.93;;;2.30;69.80;;;;;;5075033;28;20044;-73
2023/12/05 09:21:00;;;;;;;6.40;3.90;;;2.40;69.70;;;;;;5074401;28;20037;-73
2023/12/05 09:23:26;;;;;;;17.35;8.35;;;2.30;69.30;;;;;;5074816;28;20028;-70
2023/12/05 09:25:53;;;;;;;;;;;2.30;69.50;;;;;;5073419;28;20048;-70
2023/12/05 09:28:19;;;;;;;6.18;4.30;;;2.40;69.60;;;;;;5073739;28;20332;-73
2023/12/05 09:30:45;;;;;;;7.90;5.10;;;2.40;69.30;;;;;;5072861;28;20547;-73
2023/12/05 09:33:11;;;;;;;9.65;7.03;;;2.50;69.30;;;;;;5074518;28;20428;-71
2023/12/05 09:35:37;;;;;;;7.78;5.43;;;2.50;69.20;;;;;;5073288;28;20442;-73
2023/12/05 09:38:04;;;;;;;14.43;8.27;;;2.50;69.20;;;;;;5074763;28;20394;-71
2023/12/05 09:40:31;;;;;;;19.05;8.45;;;2.60;69.00;;;;;;5073823;28;20428;-73
2023/12/05 09:43:01;;;;;;;15.88;7.05;;;2.60;69.00;;;;;;5073089;28;20449;-72
2023/12/05 09:45:36;;;;;;;10.30;4.82;;;2.70;68.80;;;;;;5073130;28;20516;-73
2023/12/05 09:48:05;;;;;;;6.88;4.22;;;2.70;68.60;;;;;;5073189;28;20044;-70
2023/12/05 09:50:32;;;;;;;9.30;5.35;;;2.70;68.70;;;;;;5073788;28;20040;-70
2023/12/05 09:52:59;;;;;;;10.73;7.43;;;2.90;68.40;;;;;;5074116;28;20044;-71
2023/12/05 09:55:26;;;;;;;12.90;4.93;;;2.90;67.80;;;;;;5072682;28;20077;-70
2023/12/05 09:57:55;;;;;;;14.52;8.70;;;3.00;67.70;;;;;;5073101;28;20029;-70
2023/12/05 10:00:21;;;;;;;16.42;9.30;;;3.10;67.50;;;;;;5072384;28;20116;-73
2023/12/05 10:02:49;;;;;;;13.18;6.72;;;3.10;66.90;;;;;;5056296;28;20024;-72
2023/12/05 10:05:20;;;;;;;22.17;8.60;;;3.20;66.90;;;;;;5072344;28;20041;-70
2023/12/05 10:07:48;;;;;;;15.48;6.55;;;3.30;67.00;;;;;;5072958;28;20035;-73
2023/12/05 10:10:15;;;;;;;9.52;6.10;;;3.30;66.90;;;;;;5073316;28;20029;-71
2023/12/05 10:12:43;;;;;;;8.73;5.47;;;3.30;67.10;;;;;;5056076;28;20028;-73
2023/12/05 10:15:10;;;;;;;9.48;6.07;;;3.30;67.20;;;;;;5073491;28;20413;-73
2023/12/05 10:17:36;;;;;;;;;;;3.30;67.50;;;;;;5073076;28;20025;-73
2023/12/05 10:20:04;;;;;;;11.07;6.15;;;3.30;67.70;;;;;;5074112;28;19945;-74
2023/12/05 10:22:31;;;;;;;16.50;7.05;;;3.30;67.10;;;;;;5073375;28;20079;-73
2023/12/05 10:24:57;;;;;;;13.95;7.03;;;3.30;68.70;;;;;;5055746;28;20029;-71
2023/12/05 10:27:24;;;;;;;9.65;5.05;;;3.30;67.90;;;;;;5072467;28;20021;-73
2023/12/05 10:29:50;;;;;;;;;;;3.20;67.90;;;;;;5073049;28;20580;-73
2023/12/05 10:32:16;;;;;;;20.90;7.18;;;3.30;68.20;;;;;;5072773;28;19916;-71
2023/12/05 10:35:02;;;;;;;10.45;5.15;;;3.20;68.10;;;;;;5055546;28;20043;-73
2023/12/05 10:37:29;;;;;;;10.88;6.47;;;3.20;68.40;;;;;;5071759;28;20436;-71
2023/12/05 10:42:43;;;;;;;9.90;7.90;;;3.20;68.30;;;;;;5072047;28;20393;-70
2023/12/05 10:45:10;;;;;;;11.90;5.45;;;3.20;68.50;;;;;;5071674;28;20544;-70
2023/12/05 10:47:36;;;;;;;12.05;7.50;;;3.20;68.30;;;;;;5073343;28;20466;-73
2023/12/05 10:50:04;;;;;;;13.98;8.95;;;3.20;68.50;;;;;;5071556;28;20082;-71
2023/12/05 10:52:32;;;;;;;17.42;9.30;;;3.20;68.20;;;;;;5071775;28;20039;-72
2023/12/05 10:54:58;;;;;;;15.55;9.82;;;3.20;68.20;;;;;;5071731;28;20127;-70
2023/12/05 10:57:43;;;;;;;8.55;5.70;;;3.20;69.00;;;;;;5071842;28;20410;-71
2023/12/05 11:00:10;;;;;;;12.65;7.72;;;3.30;68.90;;;;;;5071061;28;20493;-72
2023/12/05 11:02:38;;;;;;;14.10;5.95;;;3.30;68.80;;;;;;5073066;28;20036;-70
2023/12/05 11:05:08;;;;;;;7.00;6.22;;;3.40;68.10;;;;;;5071625;28;20071;-72
2023/12/05 11:07:34;;;;;;;9.68;6.72;;;3.50;68.60;;;;;;5071749;28;20033;-70
2023/12/05 11:10:01;;;;;;;7.53;6.53;;;3.50;68.60;;;;;;5071757;28;20043;-72
2023/12/05 11:12:28;;;;;;;;;;;3.50;68.50;;;;;;5071448;28;20051;-72
2023/12/05 11:14:57;;;;;;;11.85;5.53;;;3.50;68.30;;;;;;5071212;28;20361;-72
2023/12/05 11:17:34;;;;;;;9.15;5.28;;;3.40;68.00;;;;;;5071454;28;20040;-70
2023/12/05 11:20:36;;;;;;;9.80;4.70;;;3.40;67.90;;;;;;5071389;28;20037;-73
2023/12/05 11:23:49;;;;;;;6.70;4.60;;;3.40;68.20;;;;;;5070916;28;20053;-72
2023/12/05 11:26:51;;;;;;;10.85;5.25;;;3.40;68.20;;;;;;5072475;28;20028;-73
2023/12/05 11:29:46;;;;;;;11.27;5.97;;;3.40;68.20;;;;;;5072931;28;20032;-72
2023/12/05 11:32:44;;;;;;;4.35;2.95;;;3.40;68.20;;;;;;5072321;28;20060;-73
2023/12/05 11:36:06;;;;;;;9.10;5.30;;;3.40;68.20;;;;;;5070787;28;20047;-70
2023/12/05 11:38:33;;;;;;;7.53;4.95;;;3.40;68.30;;;;;;5072441;28;20390;-69
2023/12/05 11:41:19;;;;;;;14.88;5.22;;;3.50;68.40;;;;;;5070719;28;20093;-69
2023/12/05 11:44:23;;;;;;;11.20;5.53;;;3.60;68.50;;;;;;5071039;28;20111;-70
2023/12/05 11:46:49;;;;;;;10.68;6.68;;;3.60;68.40;;;;;;5071153;28;20106;-70
2023/12/05 11:49:38;;;;;;;10.02;6.57;;;3.60;68.50;;;;;;5071993;28;20036;-70
2023/12/05 11:52:26;;;;;;;9.77;6.35;;;3.50;68.50;;;;;;5070436;28;20033;-72
2023/12/05 11:54:55;;;;;;;11.98;4.80;;;3.40;68.50;;;;;;5070954;28;20037;-69
2023/12/05 11:57:24;;;;;;;8.70;5.25;;;3.50;68.70;;;;;;5071248;28;20086;-73
2023/12/05 12:00:12;;;;;;;10.20;4.75;;;3.50;68.50;;;;;;5070951;28;20215;-70
2023/12/05 12:02:38;;;;;;;5.32;3.08;;;3.50;68.50;;;;;;5070832;28;20037;-73
2023/12/05 12:05:06;;;;;;;12.55;4.63;;;3.50;68.70;;;;;;5072040;28;20433;-69
2023/12/05 12:07:58;;;;;;;11.60;3.60;;;3.50;68.70;;;;;;5071140;28;20071;-70
2023/12/05 12:10:26;;;;;;;12.55;6.65;;;3.50;68.80;;;;;;5055037;28;20067;-71
2023/12/05 12:12:52;;;;;;;8.52;4.40;;;3.50;68.80;;;;;;5070696;28;20486;-70
2023/12/05 12:15:21;;;;;;;6.85;4.50;;;3.50;69.00;;;;;;5070675;28;20051;-70
2023/12/05 12:17:47;;;;;;;12.50;5.72;;;3.60;68.80;;;;;;5070849;28;20024;-70
2023/12/05 12:20:13;;;;;;;;;;;3.50;68.70;;;;;;5070722;28;20036;-74
2023/12/05 12:22:43;;;;;;;8.80;5.05;;;3.50;69.20;;;;;;5070870;28;19948;-74
2023/12/05 12:25:14;;;;;;;7.93;3.05;;;3.50;69.00;;;;;;5070528;28;20052;-70
2023/12/05 12:27:41;;;;;;;6.90;4.90;;;3.50;69.10;;;;;;5070997;28;20036;-70
2023/12/05 12:30:13;;;;;;;7.57;3.40;;;3.40;69.20;;;;;;5070976;28;20037;-70
2023/12/05 12:33:05;;;;;;;11.45;6.00;;;3.40;69.20;;;;;;5070777;28;20086;-73
2023/12/05 12:35:31;;;;;;;8.40;3.92;;;3.40;69.20;;;;;;5070593;28;20043;-73
2023/12/05 12:37:57;;;;;;;14.63;5.38;;;3.50;69.40;;;;;;5070688;28;20074;-72
2023/12/05 12:40:24;;;;;;;9.25;6.18;;;3.40;69.20;;;;;;5071222;28;20098;-73
2023/12/05 12:42:54;;;;;;;12.15;6.07;;;3.40;69.30;;;;;;5071635;28;20025;-73
2023/12/05 12:45:23;;;;;;;8.45;5.03;;;3.50;69.50;;;;;;5070505;28;20036;-70
2023/12/05 12:47:49;;;;;;;7.68;3.78;;;3.40;69.40;;;;;;5070658;28;20059;-73
2023/12/05 12:50:15;;;;;;;5.63;3.20;;;3.50;70.50;;;;;;5069867;28;20028;-73
2023/12/05 12:52:41;;;;;;;3.83;1.83;;;3.40;69.60;;;;;;5053713;28;20440;-70
2023/12/05 12:55:08;;;;;;;6.25;2.92;;;3.50;69.60;;;;;;5071426;28;20052;-73
2023/12/05 12:57:37;;;;;;;;;;;3.40;68.80;;;;;;5072443;28;20035;-70
2023/12/05 13:00:09;;;;;;;10.95;4.10;;;3.50;69.40;;;;;;5053023;28;20373;-70
2023/12/05 13:02:35;;;;;;;6.60;4.22;;;3.40;69.20;;;;;;5073384;28;20060;-74
2023/12/05 13:05:02;;;;;;;12.63;6.28;;;3.40;69.40;;;;;;5075093;28;20060;-71
2023/12/05 13:07:30;;;;;;;8.93;5.53;;;3.50;69.60;;;;;;5075344;28;20079;-70